sensor_id;sensor_type;location;lat;lon;timestamp;P1;durP1;ratioP1;P2;durP2;ratioP2
3417;SDS011;68007;51.312;12.372;2023-03-13T00:00:58;15.60;;;4.07;;
3417;SDS011;68007;51.312;12.372;2023-03-13T00:03:26;12.23;;;3.70;;
3417;SDS011;68007;51.312;12.372;2023-03-13T00:05:54;14.37;;;4.10;;
3417;SDS011;68007;51.312;12.372;2023-03-13T00:08:24;12.33;;;3.77;;
3417;SDS011;68007;51.312;12.372;2023-03-13T00:10:54;9.13;;;3.30;;
3417;SDS011;68007;51.312;12.372;2023-03-13T00:13:22;12.50;;;4.10;;
3417;SDS011;68007;51.312;12.372;2023-03-13T00:15:50;16.13;;;4.30;;
3417;SDS011;68007;51.312;12.372;2023-03-13T00:18:25;15.90;;;3.60;;
3417;SDS011;68007;51.312;12.372;2023-03-13T00:20:56;10.77;;;3.60;;
3417;SDS011;68007;51.312;12.372;2023-03-13T00:23:26;8.43;;;3.50;;
3417;SDS011;68007;51.312;12.372;2023-03-13T00:25:57;14.13;;;3.80;;
3417;SDS011;68007;51.312;12.372;2023-03-13T00:28:26;19.70;;;4.60;;
3417;SDS011;68007;51.312;12.372;2023-03-13T00:31:04;12.87;;;4.03;;
3417;SDS011;68007;51.312;12.372;2023-03-13T00:33:32;12.33;;;3.10;;
3417;SDS011;68007;51.312;12.372;2023-03-13T00:36:01;16.87;;;4.97;;
3417;SDS011;68007;51.312;12.372;2023-03-13T00:38:32;17.00;;;4.23;;
3417;SDS011;68007;51.312;12.372;2023-03-13T00:41:00;18.60;;;4.40;;
3417;SDS011;68007;51.312;12.372;2023-03-13T00:43:29;24.40;;;4.17;;
3417;SDS011;68007;51.312;12.372;2023-03-13T00:45:57;11.10;;;3.30;;
3417;SDS011;68007;51.312;12.372;2023-03-13T00:48:25;14.60;;;3.53;;
3417;SDS011;68007;51.312;12.372;2023-03-13T00:50:53;17.40;;;5.00;;
3417;SDS011;68007;51.312;12.372;2023-03-13T00:53:20;14.60;;;3.00;;
3417;SDS011;68007;51.312;12.372;2023-03-13T00:55:53;14.03;;;3.83;;
3417;SDS011;68007;51.312;12.372;2023-03-13T00:58:22;14.07;;;4.20;;
3417;SDS011;68007;51.312;12.372;2023-03-13T01:00:51;22.57;;;4.13;;
3417;SDS011;68007;51.312;12.372;2023-03-13T01:03:19;21.73;;;4.53;;
3417;SDS011;68007;51.312;12.372;2023-03-13T01:05:53;21.07;;;4.83;;
3417;SDS011;68007;51.312;12.372;2023-03-13T01:08:22;11.93;;;4.33;;
3417;SDS011;68007;51.312;12.372;2023-03-13T01:10:49;17.03;;;4.47;;
3417;SDS011;68007;51.312;12.372;2023-03-13T01:13:24;22.20;;;4.20;;
3417;SDS011;68007;51.312;12.372;2023-03-13T01:15:52;22.87;;;3.93;;
3417;SDS011;68007;51.312;12.372;2023-03-13T01:18:19;15.83;;;5.17;;
3417;SDS011;68007;51.312;12.372;2023-03-13T01:20:47;14.60;;;3.97;;
3417;SDS011;68007;51.312;12.372;2023-03-13T01:23:14;19.33;;;4.50;;
3417;SDS011;68007;51.312;12.372;2023-03-13T01:25:42;14.90;;;3.73;;
3417;SDS011;68007;51.312;12.372;2023-03-13T01:28:10;16.83;;;4.70;;
3417;SDS011;68007;51.312;12.372;2023-03-13T01:30:38;17.80;;;4.33;;
3417;SDS011;68007;51.312;12.372;2023-03-13T01:33:06;22.10;;;4.50;;
3417;SDS011;68007;51.312;12.372;2023-03-13T01:35:33;13.40;;;3.53;;
3417;SDS011;68007;51.312;12.372;2023-03-13T01:38:01;12.37;;;3.70;;
3417;SDS011;68007;51.312;12.372;2023-03-13T01:40:28;19.63;;;4.40;;
3417;SDS011;68007;51.312;12.372;2023-03-13T01:42:56;15.00;;;3.73;;
3417;SDS011;68007;51.312;12.372;2023-03-13T01:48:23;29.70;;;5.20;;
3417;SDS011;68007;51.312;12.372;2023-03-13T01:50:55;14.97;;;3.70;;
3417;SDS011;68007;51.312;12.372;2023-03-13T01:53:25;14.93;;;4.10;;
3417;SDS011;68007;51.312;12.372;2023-03-13T01:55:54;13.00;;;3.83;;
3417;SDS011;68007;51.312;12.372;2023-03-13T01:58:23;17.17;;;3.83;;
3417;SDS011;68007;51.312;12.372;2023-03-13T02:00:51;14.90;;;4.13;;
3417;SDS011;68007;51.312;12.372;2023-03-13T02:03:20;11.10;;;3.43;;
3417;SDS011;68007;51.312;12.372;2023-03-13T02:05:49;17.20;;;4.23;;
3417;SDS011;68007;51.312;12.372;2023-03-13T02:08:18;17.17;;;3.57;;
3417;SDS011;68007;51.312;12.372;2023-03-13T02:10:50;17.10;;;4.07;;
3417;SDS011;68007;51.312;12.372;2023-03-13T02:13:21;18.70;;;4.03;;
3417;SDS011;68007;51.312;12.372;2023-03-13T02:15:49;15.30;;;4.00;;
3417;SDS011;68007;51.312;12.372;2023-03-13T02:18:16;15.83;;;4.20;;
3417;SDS011;68007;51.312;12.372;2023-03-13T02:20:45;15.07;;;3.33;;
3417;SDS011;68007;51.312;12.372;2023-03-13T02:23:17;18.83;;;4.53;;
3417;SDS011;68007;51.312;12.372;2023-03-13T02:25:49;19.50;;;4.53;;
3417;SDS011;68007;51.312;12.372;2023-03-13T02:28:19;14.13;;;4.03;;
3417;SDS011;68007;51.312;12.372;2023-03-13T02:30:50;16.10;;;3.60;;
3417;SDS011;68007;51.312;12.372;2023-03-13T02:33:25;23.33;;;4.20;;
3417;SDS011;68007;51.312;12.372;2023-03-13T02:35:56;18.53;;;3.83;;
3417;SDS011;68007;51.312;12.372;2023-03-13T02:38:26;22.50;;;5.30;;
3417;SDS011;68007;51.312;12.372;2023-03-13T02:41:02;20.23;;;4.03;;
3417;SDS011;68007;51.312;12.372;2023-03-13T02:43:32;20.07;;;4.30;;
3417;SDS011;68007;51.312;12.372;2023-03-13T02:46:02;20.93;;;5.50;;
3417;SDS011;68007;51.312;12.372;2023-03-13T02:48:32;19.83;;;4.27;;
3417;SDS011;68007;51.312;12.372;2023-03-13T02:51:02;24.67;;;4.13;;
3417;SDS011;68007;51.312;12.372;2023-03-13T02:53:32;22.60;;;4.80;;
3417;SDS011;68007;51.312;12.372;2023-03-13T02:56:02;19.67;;;4.13;;
3417;SDS011;68007;51.312;12.372;2023-03-13T02:58:37;17.00;;;3.90;;
3417;SDS011;68007;51.312;12.372;2023-03-13T03:01:06;17.83;;;5.00;;
3417;SDS011;68007;51.312;12.372;2023-03-13T03:03:33;24.17;;;4.07;;
3417;SDS011;68007;51.312;12.372;2023-03-13T03:06:02;13.63;;;3.93;;
3417;SDS011;68007;51.312;12.372;2023-03-13T03:08:31;19.83;;;3.90;;
3417;SDS011;68007;51.312;12.372;2023-03-13T03:10:59;17.90;;;4.40;;
3417;SDS011;68007;51.312;12.372;2023-03-13T03:13:30;15.73;;;4.43;;
3417;SDS011;68007;51.312;12.372;2023-03-13T03:15:58;15.00;;;3.30;;
3417;SDS011;68007;51.312;12.372;2023-03-13T03:18:25;17.50;;;4.10;;
3417;SDS011;68007;51.312;12.372;2023-03-13T03:20:53;11.37;;;3.27;;
3417;SDS011;68007;51.312;12.372;2023-03-13T03:23:20;14.90;;;4.07;;
3417;SDS011;68007;51.312;12.372;2023-03-13T03:25:48;19.20;;;4.27;;
3417;SDS011;68007;51.312;12.372;2023-03-13T03:28:17;19.47;;;3.73;;
3417;SDS011;68007;51.312;12.372;2023-03-13T03:30:44;16.90;;;3.57;;
3417;SDS011;68007;51.312;12.372;2023-03-13T03:33:12;19.03;;;4.10;;
3417;SDS011;68007;51.312;12.372;2023-03-13T03:35:39;17.97;;;3.60;;
3417;SDS011;68007;51.312;12.372;2023-03-13T03:38:07;15.77;;;3.53;;
3417;SDS011;68007;51.312;12.372;2023-03-13T03:40:34;11.30;;;3.77;;
3417;SDS011;68007;51.312;12.372;2023-03-13T03:43:02;18.50;;;4.00;;
3417;SDS011;68007;51.312;12.372;2023-03-13T03:45:31;21.87;;;4.00;;
3417;SDS011;68007;51.312;12.372;2023-03-13T03:47:58;17.40;;;3.30;;
3417;SDS011;68007;51.312;12.372;2023-03-13T03:50:26;21.27;;;4.07;;
3417;SDS011;68007;51.312;12.372;2023-03-13T03:52:53;20.03;;;3.20;;
3417;SDS011;68007;51.312;12.372;2023-03-13T03:55:21;18.73;;;3.30;;
3417;SDS011;68007;51.312;12.372;2023-03-13T03:57:48;17.83;;;4.13;;
3417;SDS011;68007;51.312;12.372;2023-03-13T04:00:16;19.10;;;3.80;;
3417;SDS011;68007;51.312;12.372;2023-03-13T04:02:46;37.40;;;4.03;;
3417;SDS011;68007;51.312;12.372;2023-03-13T04:05:14;16.17;;;3.30;;
3417;SDS011;68007;51.312;12.372;2023-03-13T04:07:41;17.27;;;4.23;;
3417;SDS011;68007;51.312;12.372;2023-03-13T04:10:09;23.73;;;6.20;;
3417;SDS011;68007;51.312;12.372;2023-03-13T04:12:38;15.43;;;3.60;;
3417;SDS011;68007;51.312;12.372;2023-03-13T04:15:06;21.17;;;4.40;;
3417;SDS011;68007;51.312;12.372;2023-03-13T04:17:34;24.97;;;5.47;;
3417;SDS011;68007;51.312;12.372;2023-03-13T04:20:03;24.70;;;4.37;;
3417;SDS011;68007;51.312;12.372;2023-03-13T04:22:32;16.70;;;4.20;;
3417;SDS011;68007;51.312;12.372;2023-03-13T04:25:00;18.30;;;4.07;;
3417;SDS011;68007;51.312;12.372;2023-03-13T04:27:28;17.73;;;3.93;;
3417;SDS011;68007;51.312;12.372;2023-03-13T04:29:55;21.43;;;4.07;;
3417;SDS011;68007;51.312;12.372;2023-03-13T04:32:23;16.57;;;3.80;;
3417;SDS011;68007;51.312;12.372;2023-03-13T04:34:50;22.50;;;5.23;;
3417;SDS011;68007;51.312;12.372;2023-03-13T04:37:19;21.37;;;4.17;;
3417;SDS011;68007;51.312;12.372;2023-03-13T04:39:47;19.90;;;5.87;;
3417;SDS011;68007;51.312;12.372;2023-03-13T04:42:14;25.00;;;4.57;;
3417;SDS011;68007;51.312;12.372;2023-03-13T04:44:42;15.30;;;3.80;;
3417;SDS011;68007;51.312;12.372;2023-03-13T04:47:09;17.50;;;4.83;;
3417;SDS011;68007;51.312;12.372;2023-03-13T04:49:37;19.37;;;3.50;;
3417;SDS011;68007;51.312;12.372;2023-03-13T04:52:04;15.83;;;4.77;;
3417;SDS011;68007;51.312;12.372;2023-03-13T04:54:34;23.70;;;4.50;;
3417;SDS011;68007;51.312;12.372;2023-03-13T04:57:01;22.77;;;3.93;;
3417;SDS011;68007;51.312;12.372;2023-03-13T04:59:29;22.27;;;4.40;;
3417;SDS011;68007;51.312;12.372;2023-03-13T05:01:57;29.70;;;4.30;;
3417;SDS011;68007;51.312;12.372;2023-03-13T05:04:25;15.03;;;4.33;;
3417;SDS011;68007;51.312;12.372;2023-03-13T05:06:52;21.93;;;5.27;;
3417;SDS011;68007;51.312;12.372;2023-03-13T05:09:20;21.70;;;4.27;;
3417;SDS011;68007;51.312;12.372;2023-03-13T05:11:48;16.90;;;4.20;;
3417;SDS011;68007;51.312;12.372;2023-03-13T05:14:16;20.20;;;4.30;;
3417;SDS011;68007;51.312;12.372;2023-03-13T05:16:44;19.47;;;4.30;;
3417;SDS011;68007;51.312;12.372;2023-03-13T05:19:11;21.40;;;3.50;;
3417;SDS011;68007;51.312;12.372;2023-03-13T05:21:39;13.73;;;3.33;;
3417;SDS011;68007;51.312;12.372;2023-03-13T05:24:07;17.53;;;3.63;;
3417;SDS011;68007;51.312;12.372;2023-03-13T05:26:34;21.80;;;3.70;;
3417;SDS011;68007;51.312;12.372;2023-03-13T05:29:03;24.60;;;6.07;;
3417;SDS011;68007;51.312;12.372;2023-03-13T05:31:31;18.70;;;3.87;;
3417;SDS011;68007;51.312;12.372;2023-03-13T05:33:58;19.60;;;4.00;;
3417;SDS011;68007;51.312;12.372;2023-03-13T05:36:26;19.07;;;3.57;;
3417;SDS011;68007;51.312;12.372;2023-03-13T05:38:53;19.00;;;3.80;;
3417;SDS011;68007;51.312;12.372;2023-03-13T05:41:21;10.87;;;3.37;;
3417;SDS011;68007;51.312;12.372;2023-03-13T05:43:48;21.37;;;4.13;;
3417;SDS011;68007;51.312;12.372;2023-03-13T05:46:17;16.27;;;3.50;;
3417;SDS011;68007;51.312;12.372;2023-03-13T05:48:45;11.43;;;2.93;;
3417;SDS011;68007;51.312;12.372;2023-03-13T05:51:12;18.03;;;3.80;;
3417;SDS011;68007;51.312;12.372;2023-03-13T05:53:40;25.00;;;3.40;;
3417;SDS011;68007;51.312;12.372;2023-03-13T05:56:08;15.10;;;3.83;;
3417;SDS011;68007;51.312;12.372;2023-03-13T05:58:35;12.53;;;3.90;;
3417;SDS011;68007;51.312;12.372;2023-03-13T06:01:06;19.10;;;3.43;;
3417;SDS011;68007;51.312;12.372;2023-03-13T06:03:35;17.17;;;3.43;;
3417;SDS011;68007;51.312;12.372;2023-03-13T06:06:03;18.77;;;3.33;;
3417;SDS011;68007;51.312;12.372;2023-03-13T06:08:31;16.57;;;4.10;;
3417;SDS011;68007;51.312;12.372;2023-03-13T06:10:58;16.00;;;3.97;;
3417;SDS011;68007;51.312;12.372;2023-03-13T06:13:26;12.70;;;3.03;;
3417;SDS011;68007;51.312;12.372;2023-03-13T06:15:55;24.67;;;4.07;;
3417;SDS011;68007;51.312;12.372;2023-03-13T06:18:23;14.63;;;3.30;;
3417;SDS011;68007;51.312;12.372;2023-03-13T06:20:56;21.67;;;4.67;;
3417;SDS011;68007;51.312;12.372;2023-03-13T06:23:25;17.57;;;3.40;;
3417;SDS011;68007;51.312;12.372;2023-03-13T06:25:53;18.33;;;3.53;;
3417;SDS011;68007;51.312;12.372;2023-03-13T06:28:20;15.20;;;3.43;;
3417;SDS011;68007;51.312;12.372;2023-03-13T06:30:48;14.30;;;4.23;;
3417;SDS011;68007;51.312;12.372;2023-03-13T06:33:15;21.03;;;4.43;;
3417;SDS011;68007;51.312;12.372;2023-03-13T06:35:43;18.17;;;3.60;;
3417;SDS011;68007;51.312;12.372;2023-03-13T06:38:12;14.30;;;3.40;;
3417;SDS011;68007;51.312;12.372;2023-03-13T06:40:40;16.63;;;3.83;;
3417;SDS011;68007;51.312;12.372;2023-03-13T06:43:07;11.30;;;3.10;;
3417;SDS011;68007;51.312;12.372;2023-03-13T06:45:35;11.03;;;3.20;;
3417;SDS011;68007;51.312;12.372;2023-03-13T06:48:02;11.83;;;2.90;;
3417;SDS011;68007;51.312;12.372;2023-03-13T06:50:30;10.80;;;3.60;;
3417;SDS011;68007;51.312;12.372;2023-03-13T06:53:00;15.83;;;3.73;;
3417;SDS011;68007;51.312;12.372;2023-03-13T06:55:29;14.77;;;2.83;;
3417;SDS011;68007;51.312;12.372;2023-03-13T06:57:56;19.17;;;3.33;;
3417;SDS011;68007;51.312;12.372;2023-03-13T07:00:24;10.50;;;2.60;;
3417;SDS011;68007;51.312;12.372;2023-03-13T07:02:52;12.70;;;3.37;;
3417;SDS011;68007;51.312;12.372;2023-03-13T07:05:20;16.63;;;3.60;;
3417;SDS011;68007;51.312;12.372;2023-03-13T07:07:47;6.27;;;2.40;;
3417;SDS011;68007;51.312;12.372;2023-03-13T07:10:15;15.07;;;3.10;;
3417;SDS011;68007;51.312;12.372;2023-03-13T07:12:44;19.13;;;2.60;;
3417;SDS011;68007;51.312;12.372;2023-03-13T07:15:12;9.63;;;2.30;;
3417;SDS011;68007;51.312;12.372;2023-03-13T07:17:39;12.90;;;2.87;;
3417;SDS011;68007;51.312;12.372;2023-03-13T07:20:07;9.33;;;2.40;;
3417;SDS011;68007;51.312;12.372;2023-03-13T07:22:36;8.43;;;2.63;;
3417;SDS011;68007;51.312;12.372;2023-03-13T07:25:04;13.00;;;2.73;;
3417;SDS011;68007;51.312;12.372;2023-03-13T07:27:32;8.00;;;1.87;;
3417;SDS011;68007;51.312;12.372;2023-03-13T07:30:01;8.40;;;1.80;;
3417;SDS011;68007;51.312;12.372;2023-03-13T07:32:30;8.90;;;2.47;;
3417;SDS011;68007;51.312;12.372;2023-03-13T07:34:57;10.07;;;2.30;;
3417;SDS011;68007;51.312;12.372;2023-03-13T07:37:25;8.50;;;2.33;;
3417;SDS011;68007;51.312;12.372;2023-03-13T07:39:52;9.87;;;2.20;;
3417;SDS011;68007;51.312;12.372;2023-03-13T07:42:20;15.63;;;2.80;;
3417;SDS011;68007;51.312;12.372;2023-03-13T07:44:47;10.83;;;2.40;;
3417;SDS011;68007;51.312;12.372;2023-03-13T07:47:16;5.63;;;1.73;;
3417;SDS011;68007;51.312;12.372;2023-03-13T07:49:44;6.23;;;1.70;;
3417;SDS011;68007;51.312;12.372;2023-03-13T07:52:11;11.63;;;2.13;;
3417;SDS011;68007;51.312;12.372;2023-03-13T07:54:39;5.10;;;2.00;;
3417;SDS011;68007;51.312;12.372;2023-03-13T07:57:06;10.30;;;2.40;;
3417;SDS011;68007;51.312;12.372;2023-03-13T07:59:34;7.80;;;1.60;;
3417;SDS011;68007;51.312;12.372;2023-03-13T08:02:01;6.37;;;1.87;;
3417;SDS011;68007;51.312;12.372;2023-03-13T08:04:30;5.23;;;1.77;;
3417;SDS011;68007;51.312;12.372;2023-03-13T08:06:58;6.07;;;1.83;;
3417;SDS011;68007;51.312;12.372;2023-03-13T08:09:26;5.53;;;1.50;;
3417;SDS011;68007;51.312;12.372;2023-03-13T08:11:53;5.20;;;1.60;;
3417;SDS011;68007;51.312;12.372;2023-03-13T08:14:21;3.07;;;1.37;;
3417;SDS011;68007;51.312;12.372;2023-03-13T08:16:49;5.40;;;1.57;;
3417;SDS011;68007;51.312;12.372;2023-03-13T08:19:16;4.03;;;1.30;;
3417;SDS011;68007;51.312;12.372;2023-03-13T08:21:45;6.60;;;1.70;;
3417;SDS011;68007;51.312;12.372;2023-03-13T08:24:12;15.70;;;8.93;;
3417;SDS011;68007;51.312;12.372;2023-03-13T08:26:40;3.13;;;2.20;;
3417;SDS011;68007;51.312;12.372;2023-03-13T08:29:09;4.33;;;1.80;;
3417;SDS011;68007;51.312;12.372;2023-03-13T08:31:41;6.43;;;2.03;;
3417;SDS011;68007;51.312;12.372;2023-03-13T08:34:10;4.90;;;1.40;;
3417;SDS011;68007;51.312;12.372;2023-03-13T08:36:38;3.23;;;1.40;;
3417;SDS011;68007;51.312;12.372;2023-03-13T08:39:08;2.80;;;1.60;;
3417;SDS011;68007;51.312;12.372;2023-03-13T08:41:38;1.80;;;1.30;;
3417;SDS011;68007;51.312;12.372;2023-03-13T08:44:07;5.03;;;2.10;;
3417;SDS011;68007;51.312;12.372;2023-03-13T08:46:36;3.23;;;1.27;;
3417;SDS011;68007;51.312;12.372;2023-03-13T08:49:05;3.90;;;1.77;;
3417;SDS011;68007;51.312;12.372;2023-03-13T08:51:33;4.70;;;1.77;;
3417;SDS011;68007;51.312;12.372;2023-03-13T08:54:02;3.53;;;2.00;;
3417;SDS011;68007;51.312;12.372;2023-03-13T08:56:31;2.90;;;1.20;;
3417;SDS011;68007;51.312;12.372;2023-03-13T08:59:00;2.30;;;1.13;;
3417;SDS011;68007;51.312;12.372;2023-03-13T09:01:29;2.30;;;1.13;;
3417;SDS011;68007;51.312;12.372;2023-03-13T09:03:58;3.97;;;1.40;;
3417;SDS011;68007;51.312;12.372;2023-03-13T09:06:26;1.77;;;1.20;;
3417;SDS011;68007;51.312;12.372;2023-03-13T09:08:55;3.70;;;1.63;;
3417;SDS011;68007;51.312;12.372;2023-03-13T09:11:22;5.07;;;1.60;;
3417;SDS011;68007;51.312;12.372;2023-03-13T09:13:51;2.87;;;1.53;;
3417;SDS011;68007;51.312;12.372;2023-03-13T09:16:21;4.20;;;1.70;;
3417;SDS011;68007;51.312;12.372;2023-03-13T09:18:50;6.30;;;1.27;;
3417;SDS011;68007;51.312;12.372;2023-03-13T09:21:19;2.73;;;1.60;;
3417;SDS011;68007;51.312;12.372;2023-03-13T09:23:47;2.33;;;1.30;;
3417;SDS011;68007;51.312;12.372;2023-03-13T09:26:16;3.07;;;1.40;;
3417;SDS011;68007;51.312;12.372;2023-03-13T09:28:44;1.90;;;1.30;;
3417;SDS011;68007;51.312;12.372;2023-03-13T09:31:13;2.13;;;1.33;;
3417;SDS011;68007;51.312;12.372;2023-03-13T09:33:43;2.30;;;1.20;;
3417;SDS011;68007;51.312;12.372;2023-03-13T09:36:13;1.63;;;0.90;;
3417;SDS011;68007;51.312;12.372;2023-03-13T09:38:41;1.57;;;0.80;;
3417;SDS011;68007;51.312;12.372;2023-03-13T09:41:20;6.73;;;1.53;;
3417;SDS011;68007;51.312;12.372;2023-03-13T09:43:50;1.60;;;1.30;;
3417;SDS011;68007;51.312;12.372;2023-03-13T09:46:26;1.40;;;1.30;;
3417;SDS011;68007;51.312;12.372;2023-03-13T09:49:01;2.60;;;1.83;;
3417;SDS011;68007;51.312;12.372;2023-03-13T09:51:32;4.17;;;1.70;;
3417;SDS011;68007;51.312;12.372;2023-03-13T09:54:04;5.73;;;1.10;;
3417;SDS011;68007;51.312;12.372;2023-03-13T09:56:36;2.63;;;1.57;;
3417;SDS011;68007;51.312;12.372;2023-03-13T09:59:10;4.93;;;1.03;;
3417;SDS011;68007;51.312;12.372;2023-03-13T10:01:44;6.30;;;2.80;;
3417;SDS011;68007;51.312;12.372;2023-03-13T10:04:19;3.83;;;1.40;;
3417;SDS011;68007;51.312;12.372;2023-03-13T10:06:54;1.30;;;1.20;;
3417;SDS011;68007;51.312;12.372;2023-03-13T10:09:23;2.60;;;1.40;;
3417;SDS011;68007;51.312;12.372;2023-03-13T10:11:55;2.80;;;1.40;;
3417;SDS011;68007;51.312;12.372;2023-03-13T10:14:33;1.33;;;1.10;;
3417;SDS011;68007;51.312;12.372;2023-03-13T10:17:11;3.47;;;1.40;;
3417;SDS011;68007;51.312;12.372;2023-03-13T10:19:44;4.23;;;1.20;;
3417;SDS011;68007;51.312;12.372;2023-03-13T10:22:21;2.10;;;1.13;;
3417;SDS011;68007;51.312;12.372;2023-03-13T10:24:51;1.30;;;1.20;;
3417;SDS011;68007;51.312;12.372;2023-03-13T10:27:22;1.27;;;1.10;;
3417;SDS011;68007;51.312;12.372;2023-03-13T10:29:49;2.37;;;1.10;;
3417;SDS011;68007;51.312;12.372;2023-03-13T10:32:18;1.23;;;1.00;;
3417;SDS011;68007;51.312;12.372;2023-03-13T10:34:51;2.00;;;1.00;;
3417;SDS011;68007;51.312;12.372;2023-03-13T10:37:22;1.93;;;0.97;;
3417;SDS011;68007;51.312;12.372;2023-03-13T10:39:51;1.20;;;1.10;;
3417;SDS011;68007;51.312;12.372;2023-03-13T10:42:20;1.33;;;1.20;;
3417;SDS011;68007;51.312;12.372;2023-03-13T10:44:55;1.00;;;0.80;;
3417;SDS011;68007;51.312;12.372;2023-03-13T10:47:26;0.90;;;0.90;;
3417;SDS011;68007;51.312;12.372;2023-03-13T10:49:58;1.63;;;1.00;;
3417;SDS011;68007;51.312;12.372;2023-03-13T10:52:28;1.40;;;0.90;;
3417;SDS011;68007;51.312;12.372;2023-03-13T10:55:01;1.90;;;1.00;;
3417;SDS011;68007;51.312;12.372;2023-03-13T10:57:30;1.87;;;1.10;;
3417;SDS011;68007;51.312;12.372;2023-03-13T10:59:59;1.30;;;1.00;;
3417;SDS011;68007;51.312;12.372;2023-03-13T11:02:34;2.00;;;1.10;;
3417;SDS011;68007;51.312;12.372;2023-03-13T11:05:04;3.00;;;1.00;;
3417;SDS011;68007;51.312;12.372;2023-03-13T11:08:01;1.17;;;1.07;;
3417;SDS011;68007;51.312;12.372;2023-03-13T11:10:38;1.00;;;0.90;;
3417;SDS011;68007;51.312;12.372;2023-03-13T11:13:25;3.00;;;1.10;;
3417;SDS011;68007;51.312;12.372;2023-03-13T11:15:56;1.70;;;1.03;;
3417;SDS011;68007;51.312;12.372;2023-03-13T11:18:29;2.03;;;1.00;;
3417;SDS011;68007;51.312;12.372;2023-03-13T11:21:04;1.23;;;1.13;;
3417;SDS011;68007;51.312;12.372;2023-03-13T11:23:33;1.10;;;1.00;;
3417;SDS011;68007;51.312;12.372;2023-03-13T11:26:09;3.83;;;1.10;;
3417;SDS011;68007;51.312;12.372;2023-03-13T11:28:46;2.90;;;1.00;;
3417;SDS011;68007;51.312;12.372;2023-03-13T11:31:19;2.70;;;1.30;;
3417;SDS011;68007;51.312;12.372;2023-03-13T11:33:54;6.00;;;1.07;;
3417;SDS011;68007;51.312;12.372;2023-03-13T11:36:29;1.00;;;0.90;;
3417;SDS011;68007;51.312;12.372;2023-03-13T11:39:06;1.10;;;0.90;;
3417;SDS011;68007;51.312;12.372;2023-03-13T11:41:57;1.90;;;1.10;;
3417;SDS011;68007;51.312;12.372;2023-03-13T11:44:30;1.57;;;1.23;;
3417;SDS011;68007;51.312;12.372;2023-03-13T11:47:09;4.00;;;2.00;;
3417;SDS011;68007;51.312;12.372;2023-03-13T11:49:52;1.53;;;1.23;;
3417;SDS011;68007;51.312;12.372;2023-03-13T11:52:37;3.37;;;1.10;;
3417;SDS011;68007;51.312;12.372;2023-03-13T11:55:18;6.43;;;1.30;;
3417;SDS011;68007;51.312;12.372;2023-03-13T11:57:53;1.97;;;1.13;;
3417;SDS011;68007;51.312;12.372;2023-03-13T12:00:28;3.40;;;1.23;;
3417;SDS011;68007;51.312;12.372;2023-03-13T12:03:00;1.40;;;1.30;;
3417;SDS011;68007;51.312;12.372;2023-03-13T12:05:36;1.10;;;1.00;;
3417;SDS011;68007;51.312;12.372;2023-03-13T12:08:10;1.27;;;0.90;;
3417;SDS011;68007;51.312;12.372;2023-03-13T12:10:43;2.67;;;1.10;;
3417;SDS011;68007;51.312;12.372;2023-03-13T12:13:15;1.10;;;0.97;;
3417;SDS011;68007;51.312;12.372;2023-03-13T12:15:46;1.00;;;0.90;;
3417;SDS011;68007;51.312;12.372;2023-03-13T12:18:17;1.57;;;1.30;;
3417;SDS011;68007;51.312;12.372;2023-03-13T12:20:50;4.13;;;1.53;;
3417;SDS011;68007;51.312;12.372;2023-03-13T12:23:23;0.80;;;0.80;;
3417;SDS011;68007;51.312;12.372;2023-03-13T12:25:57;2.20;;;1.00;;
3417;SDS011;68007;51.312;12.372;2023-03-13T12:28:30;0.90;;;0.83;;
3417;SDS011;68007;51.312;12.372;2023-03-13T12:31:07;1.03;;;0.93;;
3417;SDS011;68007;51.312;12.372;2023-03-13T12:33:44;2.30;;;1.00;;
3417;SDS011;68007;51.312;12.372;2023-03-13T12:36:19;1.10;;;1.00;;
3417;SDS011;68007;51.312;12.372;2023-03-13T12:38:52;1.40;;;0.90;;
3417;SDS011;68007;51.312;12.372;2023-03-13T12:41:24;1.10;;;1.00;;
3417;SDS011;68007;51.312;12.372;2023-03-13T12:43:54;2.67;;;1.10;;
3417;SDS011;68007;51.312;12.372;2023-03-13T12:46:28;2.80;;;1.00;;
3417;SDS011;68007;51.312;12.372;2023-03-13T12:49:05;1.30;;;0.93;;
3417;SDS011;68007;51.312;12.372;2023-03-13T12:51:59;5.80;;;1.10;;
3417;SDS011;68007;51.312;12.372;2023-03-13T12:54:47;8.93;;;1.27;;
3417;SDS011;68007;51.312;12.372;2023-03-13T12:57:30;2.67;;;1.33;;
3417;SDS011;68007;51.312;12.372;2023-03-13T13:00:24;5.90;;;1.30;;
3417;SDS011;68007;51.312;12.372;2023-03-13T13:03:00;2.63;;;1.60;;
3417;SDS011;68007;51.312;12.372;2023-03-13T13:05:35;1.70;;;1.10;;
3417;SDS011;68007;51.312;12.372;2023-03-13T13:08:04;1.73;;;1.27;;
3417;SDS011;68007;51.312;12.372;2023-03-13T13:10:32;1.73;;;1.10;;
3417;SDS011;68007;51.312;12.372;2023-03-13T13:13:24;4.33;;;1.27;;
3417;SDS011;68007;51.312;12.372;2023-03-13T13:15:59;2.10;;;1.30;;
3417;SDS011;68007;51.312;12.372;2023-03-13T13:18:30;6.60;;;1.60;;
3417;SDS011;68007;51.312;12.372;2023-03-13T13:21:18;1.60;;;1.27;;
3417;SDS011;68007;51.312;12.372;2023-03-13T13:23:49;1.70;;;1.57;;
3417;SDS011;68007;51.312;12.372;2023-03-13T13:35:25;2.10;;;1.70;;
3417;SDS011;68007;51.312;12.372;2023-03-13T13:41:01;2.27;;;1.30;;
3417;SDS011;68007;51.312;12.372;2023-03-13T13:43:31;1.60;;;1.33;;
3417;SDS011;68007;51.312;12.372;2023-03-13T13:46:01;4.40;;;1.40;;
3417;SDS011;68007;51.312;12.372;2023-03-13T13:48:33;1.40;;;1.30;;
3417;SDS011;68007;51.312;12.372;2023-03-13T13:54:02;3.40;;;1.57;;
3417;SDS011;68007;51.312;12.372;2023-03-13T13:56:40;3.97;;;1.30;;
3417;SDS011;68007;51.312;12.372;2023-03-13T13:59:27;4.53;;;1.27;;
3417;SDS011;68007;51.312;12.372;2023-03-13T14:02:19;4.00;;;1.30;;
3417;SDS011;68007;51.312;12.372;2023-03-13T14:04:55;3.27;;;1.17;;
3417;SDS011;68007;51.312;12.372;2023-03-13T14:07:31;1.73;;;1.33;;
3417;SDS011;68007;51.312;12.372;2023-03-13T14:10:28;4.20;;;1.87;;
3417;SDS011;68007;51.312;12.372;2023-03-13T14:13:09;2.40;;;1.40;;
3417;SDS011;68007;51.312;12.372;2023-03-13T14:15:40;3.43;;;1.77;;
3417;SDS011;68007;51.312;12.372;2023-03-13T14:18:10;26.43;;;8.73;;
3417;SDS011;68007;51.312;12.372;2023-03-13T14:20:40;4.30;;;1.57;;
3417;SDS011;68007;51.312;12.372;2023-03-13T14:23:28;2.53;;;2.03;;
3417;SDS011;68007;51.312;12.372;2023-03-13T14:25:58;2.43;;;1.53;;
3417;SDS011;68007;51.312;12.372;2023-03-13T14:28:39;3.43;;;2.00;;
3417;SDS011;68007;51.312;12.372;2023-03-13T14:31:08;2.60;;;1.70;;
3417;SDS011;68007;51.312;12.372;2023-03-13T14:33:36;2.67;;;1.30;;
3417;SDS011;68007;51.312;12.372;2023-03-13T14:36:04;2.40;;;1.50;;
3417;SDS011;68007;51.312;12.372;2023-03-13T14:38:32;1.57;;;1.23;;
3417;SDS011;68007;51.312;12.372;2023-03-13T14:41:00;3.50;;;2.27;;
3417;SDS011;68007;51.312;12.372;2023-03-13T14:43:29;2.20;;;1.20;;
3417;SDS011;68007;51.312;12.372;2023-03-13T14:46:12;3.67;;;1.20;;
3417;SDS011;68007;51.312;12.372;2023-03-13T14:49:04;9.30;;;1.30;;
3417;SDS011;68007;51.312;12.372;2023-03-13T14:51:35;2.60;;;1.37;;
3417;SDS011;68007;51.312;12.372;2023-03-13T14:54:05;1.73;;;1.53;;
3417;SDS011;68007;51.312;12.372;2023-03-13T14:57:00;3.40;;;2.00;;
3417;SDS011;68007;51.312;12.372;2023-03-13T14:59:29;2.27;;;1.20;;
3417;SDS011;68007;51.312;12.372;2023-03-13T15:01:59;5.23;;;1.30;;
3417;SDS011;68007;51.312;12.372;2023-03-13T15:07:14;4.23;;;1.90;;
3417;SDS011;68007;51.312;12.372;2023-03-13T15:09:42;3.90;;;1.97;;
3417;SDS011;68007;51.312;12.372;2023-03-13T15:12:12;7.73;;;1.60;;
3417;SDS011;68007;51.312;12.372;2023-03-13T15:14:42;3.37;;;1.53;;
3417;SDS011;68007;51.312;12.372;2023-03-13T15:17:13;3.70;;;1.83;;
3417;SDS011;68007;51.312;12.372;2023-03-13T15:19:46;3.30;;;1.80;;
3417;SDS011;68007;51.312;12.372;2023-03-13T15:22:15;6.27;;;1.80;;